Glendon, West Virginia
Current Conditions -  °F | °C
As of 11:15 AM on Thursday 30 Oct 2014 (Local Time) from KW22 Reporting Station
Overcast Overcast  
Wind Chill: 43°   Ceiling: 1600
Heat Index: 43°   Visibility: 10mi
Dew Point: 36°   Wind: 0mph
Humidity: 76%   Direction: NA
Pressure: 30.12"   Gusts: NA
Location:  38.6272°N, 80.8879°W
Report Text: KW22 301515Z AUTO 00000KT 10SM BKN016 OVC039 06/02 A3012 RMK AO2
Loading
Personal Weather Stations






























Interactive Weather Map
Tropical Storm Tracking
New forecast layout! Learn more

10-Day Weather Forecast

Advertisements
Track Severe Weather on mobile